Chapel Saint Leonards, United Kingdom
Current Conditions -  °F | °C
As of 8:50 PM on Monday 22 Dec 2014 (Local Time) from EGXS Reporting Station
Broken Clouds Broken Clouds  
Wind Chill: 55°   Ceiling: 2400
Heat Index: 55°   Visibility: 6mi
Dew Point: 48°   Wind: 28mph
Humidity: 77%   Direction: 220°SW
Pressure: 29.8"   Gusts: 43mph
Location:  53.22°N, 0.32°E
Report Text: EGXS 222050Z AUTO 22024G37KT 9999 // BKN024/// BKN031/// 13/09 Q1009
Loading
Personal Weather Stations






























Interactive Weather Map New forecast layout! Learn more

10-Day Weather Forecast

Advertisements
Track Severe Weather on mobile